createdAt,value
2023-06-07T00:00:30.989Z,95091.00
2023-06-07T00:01:30.986Z,95092.00
2023-06-07T00:02:42.938Z,95093.00
2023-06-07T00:03:32.504Z,95091.00
2023-06-07T00:04:31.159Z,95091.00
2023-06-07T00:05:31.098Z,95090.00
2023-06-07T00:06:31.111Z,95095.00
2023-06-07T00:07:31.087Z,95095.00
2023-06-07T00:08:31.092Z,95094.00
2023-06-07T00:09:31.104Z,95094.00
2023-06-07T00:10:31.121Z,95091.00
2023-06-07T00:11:31.136Z,95094.00
2023-06-07T00:12:31.227Z,95093.00
2023-06-07T00:13:31.159Z,95094.00
2023-06-07T00:14:31.234Z,95094.00
2023-06-07T00:15:31.294Z,95093.00
2023-06-07T00:16:31.338Z,95096.00
2023-06-07T00:17:31.452Z,95094.00
2023-06-07T00:18:31.420Z,95092.00
2023-06-07T00:19:31.391Z,95092.00
2023-06-07T00:20:31.433Z,95091.00
2023-06-07T00:21:31.528Z,95090.00
2023-06-07T00:22:31.521Z,95090.00
2023-06-07T00:23:31.607Z,95091.00
2023-06-07T00:24:31.633Z,95092.00
2023-06-07T00:25:31.630Z,95091.00
2023-06-07T00:26:31.617Z,95090.00
2023-06-07T00:27:31.668Z,95091.00
2023-06-07T00:28:31.691Z,95089.00
2023-06-07T00:29:31.735Z,95089.00
2023-06-07T00:30:31.725Z,95088.00
2023-06-07T00:31:31.810Z,95088.00
2023-06-07T00:32:31.796Z,95089.00
2023-06-07T00:33:31.834Z,95090.00
2023-06-07T00:34:31.837Z,95090.00
2023-06-07T00:35:31.875Z,95090.00
2023-06-07T00:36:31.868Z,95090.00
2023-06-07T00:37:31.928Z,95091.00
2023-06-07T00:38:31.922Z,95087.00
2023-06-07T00:39:31.919Z,95088.00
2023-06-07T00:40:31.947Z,95086.00
2023-06-07T00:41:31.961Z,95087.00
2023-06-07T00:42:31.965Z,95088.00
2023-06-07T00:43:32.050Z,95084.00
2023-06-07T00:44:31.994Z,95086.00
2023-06-07T00:45:32.032Z,95088.00
2023-06-07T00:46:32.039Z,95088.00
2023-06-07T00:47:32.186Z,95084.00
2023-06-07T00:48:32.151Z,95085.00
2023-06-07T00:49:32.130Z,95085.00
2023-06-07T00:50:32.194Z,95084.00
2023-06-07T00:51:32.195Z,95082.00
2023-06-07T00:52:32.242Z,95082.00
2023-06-07T00:53:32.266Z,95081.00
2023-06-07T00:54:32.332Z,95080.00
2023-06-07T00:55:32.319Z,95081.00
2023-06-07T00:56:32.327Z,95078.00
2023-06-07T00:57:32.349Z,95081.00
2023-06-07T00:58:32.420Z,95080.00
2023-06-07T00:59:32.384Z,95079.00
2023-06-07T01:00:32.480Z,95080.00
2023-06-07T01:01:32.495Z,95080.00
2023-06-07T01:02:32.429Z,95080.00
2023-06-07T01:03:32.631Z,95078.00
2023-06-07T01:04:32.420Z,95079.00
2023-06-07T01:05:32.453Z,95079.00
2023-06-07T01:06:32.419Z,95079.00
2023-06-07T01:07:32.460Z,95078.00
2023-06-07T01:08:32.462Z,95079.00
2023-06-07T01:09:32.459Z,95079.00
2023-06-07T01:10:32.534Z,95078.00
2023-06-07T01:11:32.554Z,95075.00
2023-06-07T01:12:32.605Z,95079.00
2023-06-07T01:13:32.625Z,95080.00
2023-06-07T01:14:32.640Z,95078.00
2023-06-07T01:15:32.673Z,95077.00
2023-06-07T01:16:32.708Z,95077.00
2023-06-07T01:17:32.726Z,95076.00
2023-06-07T01:18:32.697Z,95073.00
2023-06-07T01:19:32.732Z,95071.00
2023-06-07T01:20:32.733Z,95070.00
2023-06-07T01:21:32.786Z,95067.00
2023-06-07T01:22:32.725Z,95068.00
2023-06-07T01:23:32.853Z,95066.00
2023-06-07T01:24:32.752Z,95063.00
2023-06-07T01:25:32.749Z,95065.00
2023-06-07T01:26:32.775Z,95066.00
2023-06-07T01:27:32.759Z,95068.00
2023-06-07T01:28:32.752Z,95067.00
2023-06-07T01:29:32.785Z,95067.00
2023-06-07T01:30:32.842Z,95066.00
2023-06-07T01:31:32.815Z,95065.00
2023-06-07T01:32:32.854Z,95067.00
2023-06-07T01:33:32.818Z,95067.00
2023-06-07T01:34:32.830Z,95065.00
2023-06-07T01:35:32.839Z,95067.00
2023-06-07T01:36:32.861Z,95067.00
2023-06-07T01:37:32.862Z,95069.00
2023-06-07T01:38:32.850Z,95069.00
2023-06-07T01:39:32.864Z,95072.00
2023-06-07T01:40:32.858Z,95075.00
2023-06-07T01:41:32.897Z,95074.00
2023-06-07T01:42:32.890Z,95076.00
2023-06-07T01:43:32.881Z,95073.00
2023-06-07T01:44:32.899Z,95074.00
2023-06-07T01:45:32.918Z,95074.00
2023-06-07T01:46:33.010Z,95073.00
2023-06-07T01:47:32.946Z,95075.00
2023-06-07T01:48:32.964Z,95075.00
2023-06-07T01:49:32.930Z,95074.00
2023-06-07T01:50:32.915Z,95075.00
2023-06-07T01:51:32.944Z,95077.00
2023-06-07T01:52:32.936Z,95075.00
2023-06-07T01:53:32.920Z,95075.00
2023-06-07T01:54:32.940Z,95077.00
2023-06-07T01:55:32.972Z,95075.00
2023-06-07T01:56:32.952Z,95075.00
2023-06-07T01:57:32.989Z,95077.00
2023-06-07T01:58:32.980Z,95076.00
2023-06-07T01:59:33.014Z,95078.00
2023-06-07T02:00:33.006Z,95078.00
2023-06-07T02:01:33.127Z,95081.00
2023-06-07T02:02:33.052Z,95082.00
2023-06-07T02:03:33.023Z,95080.00
2023-06-07T02:04:33.026Z,95082.00
2023-06-07T02:05:33.056Z,95082.00
2023-06-07T02:06:33.079Z,95083.00
2023-06-07T02:07:33.065Z,95085.00
2023-06-07T02:08:33.116Z,95083.00
2023-06-07T02:09:33.089Z,95084.00
2023-06-07T02:10:33.126Z,95083.00
2023-06-07T02:11:33.174Z,95084.00
2023-06-07T02:12:33.117Z,95085.00
2023-06-07T02:13:33.122Z,95085.00
2023-06-07T02:14:33.145Z,95086.00
2023-06-07T02:15:33.138Z,95085.00
2023-06-07T02:16:33.176Z,95088.00
2023-06-07T02:17:33.435Z,95087.00
2023-06-07T02:18:33.159Z,95088.00
2023-06-07T02:19:33.200Z,95088.00
2023-06-07T02:20:33.198Z,95089.00
2023-06-07T02:21:33.219Z,95086.00
2023-06-07T02:22:33.240Z,95086.00
2023-06-07T02:23:33.284Z,95085.00
2023-06-07T02:24:33.251Z,95086.00
2023-06-07T02:25:33.272Z,95088.00
2023-06-07T02:26:33.279Z,95090.00
2023-06-07T02:27:33.274Z,95088.00
2023-06-07T02:28:33.379Z,95088.00
2023-06-07T02:29:33.339Z,95089.00
2023-06-07T02:30:33.324Z,95088.00
2023-06-07T02:31:33.387Z,95090.00
2023-06-07T02:32:33.371Z,95090.00
2023-06-07T02:33:33.360Z,95088.00
2023-06-07T02:34:33.397Z,95090.00
2023-06-07T02:35:33.404Z,95090.00
2023-06-07T02:36:33.410Z,95087.00
2023-06-07T02:37:33.429Z,95089.00
2023-06-07T02:38:33.425Z,95087.00
2023-06-07T02:39:33.463Z,95087.00
2023-06-07T02:40:33.464Z,95088.00
2023-06-07T02:41:33.495Z,95089.00
2023-06-07T02:42:33.492Z,95092.00
2023-06-07T02:43:33.512Z,95093.00
2023-06-07T02:44:33.505Z,95095.00
2023-06-07T02:45:33.548Z,95096.00
2023-06-07T02:46:33.534Z,95094.00
2023-06-07T02:47:33.586Z,95094.00
2023-06-07T02:48:33.556Z,95095.00
2023-06-07T02:49:33.565Z,95096.00
2023-06-07T02:50:33.580Z,95093.00
2023-06-07T02:51:33.590Z,95094.00
2023-06-07T02:52:33.580Z,95094.00
2023-06-07T02:53:33.647Z,95096.00
2023-06-07T02:54:33.643Z,95096.00
2023-06-07T02:55:33.691Z,95098.00
2023-06-07T02:56:33.669Z,95098.00
2023-06-07T02:57:33.680Z,95093.00
2023-06-07T02:58:33.692Z,95096.00
2023-06-07T02:59:33.709Z,95095.00
2023-06-07T03:00:33.749Z,95095.00
2023-06-07T03:01:33.935Z,95094.00
2023-06-07T03:02:33.851Z,95094.00
2023-06-07T03:03:33.880Z,95093.00
2023-06-07T03:04:33.811Z,95095.00
2023-06-07T03:05:33.814Z,95096.00
2023-06-07T03:06:33.863Z,95094.00
2023-06-07T03:07:33.834Z,95095.00
2023-06-07T03:08:33.858Z,95096.00
2023-06-07T03:09:33.897Z,95096.00
2023-06-07T03:10:33.911Z,95098.00
2023-06-07T03:11:33.923Z,95098.00
2023-06-07T03:12:33.886Z,95098.00
2023-06-07T03:13:33.891Z,95103.00
2023-06-07T03:14:33.943Z,95102.00
2023-06-07T03:15:33.981Z,95102.00
2023-06-07T03:16:33.999Z,95103.00
2023-06-07T03:17:33.998Z,95104.00
2023-06-07T03:18:33.974Z,95107.00
2023-06-07T03:19:34.017Z,95105.00
2023-06-07T03:20:34.048Z,95108.00
2023-06-07T03:21:34.058Z,95108.00
2023-06-07T03:22:34.095Z,95109.00
2023-06-07T03:23:34.100Z,95107.00
2023-06-07T03:24:34.103Z,95108.00
2023-06-07T03:25:34.774Z,95108.00
2023-06-07T03:26:34.165Z,95109.00
2023-06-07T03:27:34.168Z,95109.00
2023-06-07T03:28:34.185Z,95109.00
2023-06-07T03:29:34.244Z,95111.00
2023-06-07T03:30:34.305Z,95113.00
2023-06-07T03:31:34.291Z,95113.00
2023-06-07T03:32:34.378Z,95115.00
2023-06-07T03:33:34.313Z,95114.00
2023-06-07T03:34:34.353Z,95114.00
2023-06-07T03:35:34.390Z,95113.00
2023-06-07T03:36:34.399Z,95111.00
2023-06-07T03:37:34.413Z,95115.00
2023-06-07T03:38:34.451Z,95114.00
2023-06-07T03:39:34.504Z,95114.00
2023-06-07T03:40:34.529Z,95117.00
2023-06-07T03:41:34.554Z,95115.00
2023-06-07T03:42:34.556Z,95116.00
2023-06-07T03:43:34.571Z,95118.00
2023-06-07T03:44:34.613Z,95117.00
2023-06-07T03:45:34.596Z,95119.00
2023-06-07T03:46:34.638Z,95120.00
2023-06-07T03:47:34.669Z,95118.00
2023-06-07T03:48:34.705Z,95117.00
2023-06-07T03:49:34.701Z,95115.00
2023-06-07T03:50:34.708Z,95116.00
2023-06-07T03:51:34.746Z,95116.00
2023-06-07T03:52:34.786Z,95115.00
2023-06-07T03:53:34.788Z,95116.00
2023-06-07T03:54:34.795Z,95117.00
2023-06-07T03:55:34.821Z,95117.00
2023-06-07T03:56:34.902Z,95118.00
2023-06-07T03:57:34.848Z,95120.00
2023-06-07T03:58:34.868Z,95117.00
2023-06-07T03:59:34.912Z,95119.00
2023-06-07T04:00:34.894Z,95116.00
2023-06-07T04:01:34.907Z,95117.00
2023-06-07T04:02:35.040Z,95119.00
2023-06-07T04:03:35.056Z,95117.00
2023-06-07T04:04:35.010Z,95118.00
2023-06-07T04:05:34.971Z,95119.00
2023-06-07T04:06:34.995Z,95120.00
2023-06-07T04:07:35.004Z,95123.00
2023-06-07T04:08:35.015Z,95123.00
2023-06-07T04:09:35.025Z,95123.00
2023-06-07T04:10:35.021Z,95125.00
2023-06-07T04:11:35.040Z,95124.00
2023-06-07T04:12:35.050Z,95123.00
2023-06-07T04:13:35.083Z,95126.00
2023-06-07T04:14:35.062Z,95127.00
2023-06-07T04:15:35.105Z,95126.00
2023-06-07T04:16:35.139Z,95127.00
2023-06-07T04:17:35.160Z,95126.00
2023-06-07T04:18:35.161Z,95127.00
2023-06-07T04:19:35.139Z,95127.00
2023-06-07T04:20:35.143Z,95130.00
2023-06-07T04:21:35.181Z,95127.00
2023-06-07T04:22:35.194Z,95130.00
2023-06-07T04:23:35.233Z,95129.00
2023-06-07T04:24:35.207Z,95128.00
2023-06-07T04:25:35.230Z,95131.00
2023-06-07T04:26:35.250Z,95131.00
2023-06-07T04:27:35.288Z,95129.00
2023-06-07T04:28:35.282Z,95129.00
2023-06-07T04:29:35.307Z,95132.00
2023-06-07T04:30:35.300Z,95134.00
2023-06-07T04:31:35.526Z,95134.00
2023-06-07T04:32:35.364Z,95137.00
2023-06-07T04:33:35.335Z,95138.00
2023-06-07T04:34:35.362Z,95138.00
2023-06-07T04:35:35.367Z,95140.00
2023-06-07T04:36:35.364Z,95143.00
2023-06-07T04:37:35.419Z,95143.00
2023-06-07T04:38:43.352Z,95143.00
2023-06-07T04:39:36.465Z,95144.00
2023-06-07T04:40:35.456Z,95145.00
2023-06-07T04:41:35.492Z,95145.00
2023-06-07T04:42:35.475Z,95144.00
2023-06-07T04:43:35.534Z,95145.00
2023-06-07T04:44:35.521Z,95143.00
2023-06-07T04:45:35.503Z,95142.00
2023-06-07T04:46:35.610Z,95142.00
2023-06-07T04:47:35.565Z,95142.00
2023-06-07T04:48:35.600Z,95143.00
2023-06-07T04:49:35.559Z,95143.00
2023-06-07T04:50:35.531Z,95147.00
2023-06-07T04:51:35.599Z,95146.00
2023-06-07T04:52:35.572Z,95146.00
2023-06-07T04:53:35.599Z,95145.00
2023-06-07T04:54:35.598Z,95145.00
2023-06-07T04:55:35.655Z,95143.00
2023-06-07T04:56:35.583Z,95144.00
2023-06-07T04:57:35.597Z,95142.00
2023-06-07T04:58:35.593Z,95140.00
2023-06-07T04:59:35.736Z,95141.00
2023-06-07T05:00:35.614Z,95141.00
2023-06-07T05:01:35.678Z,95142.00
2023-06-07T05:02:35.689Z,95142.00
2023-06-07T05:03:35.635Z,95142.00
2023-06-07T05:04:35.642Z,95142.00
2023-06-07T05:05:35.694Z,95141.00
2023-06-07T05:06:35.696Z,95141.00
2023-06-07T05:07:35.663Z,95144.00
2023-06-07T05:08:35.702Z,95143.00
2023-06-07T05:09:35.774Z,95144.00
2023-06-07T05:10:35.719Z,95145.00
2023-06-07T05:11:35.736Z,95146.00
2023-06-07T05:12:35.722Z,95145.00
2023-06-07T05:13:35.756Z,95146.00
2023-06-07T05:14:35.826Z,95145.00
2023-06-07T05:15:35.840Z,95143.00
2023-06-07T05:16:35.894Z,95143.00
2023-06-07T05:17:36.074Z,95142.00
2023-06-07T05:18:35.932Z,95141.00
2023-06-07T05:19:35.962Z,95139.00
2023-06-07T05:20:35.958Z,95140.00
2023-06-07T05:21:35.997Z,95140.00
2023-06-07T05:22:35.998Z,95138.00
2023-06-07T05:23:35.992Z,95142.00
2023-06-07T05:24:36.009Z,95141.00
2023-06-07T05:25:36.013Z,95141.00
2023-06-07T05:26:36.069Z,95139.00
2023-06-07T05:27:36.074Z,95136.00
2023-06-07T05:28:36.074Z,95137.00
2023-06-07T05:29:36.109Z,95137.00
2023-06-07T05:30:36.154Z,95135.00
2023-06-07T05:31:36.154Z,95136.00
2023-06-07T05:32:36.179Z,95137.00
2023-06-07T05:33:36.151Z,95138.00
2023-06-07T05:34:36.161Z,95139.00
2023-06-07T05:35:36.157Z,95141.00
2023-06-07T05:36:36.362Z,95141.00
2023-06-07T05:37:36.218Z,95140.00
2023-06-07T05:38:36.203Z,95140.00
2023-06-07T05:39:36.233Z,95140.00
2023-06-07T05:40:36.246Z,95142.00
2023-06-07T05:41:36.254Z,95140.00
2023-06-07T05:42:36.264Z,95139.00
2023-06-07T05:43:36.246Z,95139.00
2023-06-07T05:44:36.257Z,95137.00
2023-06-07T05:45:36.340Z,95137.00
2023-06-07T05:46:36.804Z,95137.00
2023-06-07T05:47:36.447Z,95138.00
2023-06-07T05:48:36.418Z,95138.00
2023-06-07T05:49:39.297Z,95140.00
2023-06-07T05:50:36.466Z,95139.00
2023-06-07T05:51:36.492Z,95138.00
2023-06-07T05:52:36.499Z,95141.00
2023-06-07T05:53:36.511Z,95136.00
2023-06-07T05:54:36.496Z,95134.00
2023-06-07T05:55:36.455Z,95134.00
2023-06-07T05:56:36.518Z,95133.00
2023-06-07T05:57:36.475Z,95134.00
2023-06-07T05:58:36.482Z,95133.00
2023-06-07T05:59:36.492Z,95132.00
2023-06-07T06:00:36.479Z,95136.00
2023-06-07T06:01:36.502Z,95135.00
2023-06-07T06:02:36.543Z,95132.00
2023-06-07T06:03:36.496Z,95136.00
2023-06-07T06:04:36.558Z,95135.00
2023-06-07T06:05:36.527Z,95132.00
2023-06-07T06:06:36.526Z,95133.00
2023-06-07T06:07:36.568Z,95131.00
2023-06-07T06:08:36.581Z,95132.00
2023-06-07T06:09:36.587Z,95130.00
2023-06-07T06:10:36.583Z,95130.00
2023-06-07T06:11:36.614Z,95129.00
2023-06-07T06:12:36.604Z,95129.00
2023-06-07T06:13:36.630Z,95129.00
2023-06-07T06:14:36.597Z,95129.00
2023-06-07T06:15:36.597Z,95128.00
2023-06-07T06:16:36.661Z,95130.00
2023-06-07T06:17:36.667Z,95128.00
2023-06-07T06:18:36.606Z,95128.00
2023-06-07T06:19:36.596Z,95127.00
2023-06-07T06:20:36.611Z,95126.00
2023-06-07T06:21:36.693Z,95126.00
2023-06-07T06:22:36.666Z,95125.00
2023-06-07T06:23:36.667Z,95127.00
2023-06-07T06:24:36.634Z,95127.00
2023-06-07T06:25:36.659Z,95126.00
2023-06-07T06:26:36.660Z,95124.00
2023-06-07T06:27:36.682Z,95122.00
2023-06-07T06:28:36.655Z,95124.00
2023-06-07T06:29:36.683Z,95124.00
2023-06-07T06:30:36.709Z,95121.00
2023-06-07T06:31:36.749Z,95123.00
2023-06-07T06:32:36.711Z,95122.00
2023-06-07T06:33:36.846Z,95125.00
2023-06-07T06:34:36.717Z,95123.00
2023-06-07T06:35:36.733Z,95126.00
2023-06-07T06:36:36.745Z,95123.00
2023-06-07T06:37:36.691Z,95127.00
2023-06-07T06:38:36.712Z,95125.00
2023-06-07T06:39:36.721Z,95125.00
2023-06-07T06:40:36.715Z,95123.00
2023-06-07T06:41:36.890Z,95121.00
2023-06-07T06:42:36.751Z,95120.00
2023-06-07T06:43:36.806Z,95120.00
2023-06-07T06:44:36.748Z,95120.00
2023-06-07T06:45:36.748Z,95121.00
2023-06-07T06:46:36.822Z,95119.00
2023-06-07T06:47:36.803Z,95117.00
2023-06-07T06:48:36.835Z,95117.00
2023-06-07T06:49:36.760Z,95116.00
2023-06-07T06:50:36.992Z,95116.00
2023-06-07T06:51:36.780Z,95115.00
2023-06-07T06:52:36.771Z,95112.00
2023-06-07T06:53:36.790Z,95113.00
2023-06-07T06:54:36.811Z,95110.00
2023-06-07T06:55:36.804Z,95107.00
2023-06-07T06:56:36.819Z,95109.00
2023-06-07T06:57:36.803Z,95110.00
2023-06-07T06:58:36.807Z,95110.00
2023-06-07T06:59:36.858Z,95110.00
2023-06-07T07:00:36.947Z,95107.00
2023-06-07T07:01:36.851Z,95106.00
2023-06-07T07:02:36.836Z,95107.00
2023-06-07T07:03:36.846Z,95107.00
2023-06-07T07:04:36.977Z,95106.00
2023-06-07T07:05:37.060Z,95103.00
2023-06-07T07:06:36.864Z,95103.00
2023-06-07T07:07:36.834Z,95106.00
2023-06-07T07:08:36.893Z,95103.00
2023-06-07T07:09:36.875Z,95105.00
2023-06-07T07:10:36.923Z,95107.00
2023-06-07T07:11:36.907Z,95106.00
2023-06-07T07:12:36.914Z,95106.00
2023-06-07T07:13:36.928Z,95107.00
2023-06-07T07:14:36.937Z,95105.00
2023-06-07T07:15:36.930Z,95105.00
2023-06-07T07:16:39.180Z,95105.00
2023-06-07T07:17:36.959Z,95104.00
2023-06-07T07:18:36.941Z,95104.00
2023-06-07T07:19:37.070Z,95102.00
2023-06-07T07:20:36.954Z,95105.00
2023-06-07T07:21:37.007Z,95103.00
2023-06-07T07:22:36.974Z,95102.00
2023-06-07T07:23:37.017Z,95105.00
2023-06-07T07:24:37.296Z,95103.00
2023-06-07T07:25:37.065Z,95102.00
2023-06-07T07:26:37.038Z,95101.00
2023-06-07T07:27:37.117Z,95101.00
2023-06-07T07:28:37.048Z,95099.00
2023-06-07T07:29:37.041Z,95094.00
2023-06-07T07:30:37.057Z,95096.00
2023-06-07T07:31:37.085Z,95095.00
2023-06-07T07:32:37.071Z,95092.00
2023-06-07T07:33:37.100Z,95093.00
2023-06-07T07:34:38.081Z,95090.00
2023-06-07T07:35:37.090Z,95090.00
2023-06-07T07:36:37.114Z,95087.00
2023-06-07T07:37:37.124Z,95089.00
2023-06-07T07:38:37.116Z,95088.00
2023-06-07T07:39:37.104Z,95084.00
2023-06-07T07:40:37.231Z,95082.00
2023-06-07T07:41:37.150Z,95081.00
2023-06-07T07:42:37.136Z,95083.00
2023-06-07T07:43:38.396Z,95082.00
2023-06-07T07:44:37.193Z,95080.00
2023-06-07T07:45:37.146Z,95078.00
2023-06-07T07:46:37.158Z,95076.00
2023-06-07T07:47:37.858Z,95071.00
2023-06-07T07:48:37.136Z,95071.00
2023-06-07T07:49:37.142Z,95071.00
2023-06-07T07:50:37.167Z,95068.00
2023-06-07T07:51:37.158Z,95069.00
2023-06-07T07:52:37.270Z,95069.00
2023-06-07T07:53:37.137Z,95068.00
2023-06-07T07:54:37.178Z,95064.00
2023-06-07T07:55:37.186Z,95063.00
2023-06-07T07:56:37.189Z,95063.00
2023-06-07T07:57:37.254Z,95062.00
2023-06-07T07:58:37.214Z,95061.00
2023-06-07T07:59:37.169Z,95059.00
2023-06-07T08:00:37.179Z,95056.00
2023-06-07T08:01:37.224Z,95055.00
2023-06-07T08:02:37.323Z,95054.00
2023-06-07T08:03:37.535Z,95055.00
2023-06-07T08:04:37.173Z,95052.00
2023-06-07T08:05:37.221Z,95055.00
2023-06-07T08:06:37.192Z,95055.00
2023-06-07T08:07:37.265Z,95055.00
2023-06-07T08:08:37.214Z,95054.00
2023-06-07T08:09:37.219Z,95054.00
2023-06-07T08:10:37.191Z,95052.00
2023-06-07T08:11:37.220Z,95050.00
2023-06-07T08:12:37.203Z,95047.00
2023-06-07T08:13:37.221Z,95048.00
2023-06-07T08:14:37.211Z,95049.00
2023-06-07T08:15:37.209Z,95048.00
2023-06-07T08:16:37.208Z,95048.00
2023-06-07T08:17:37.208Z,95047.00
2023-06-07T08:18:37.262Z,95046.00
2023-06-07T08:19:37.243Z,95045.00
2023-06-07T08:20:37.234Z,95044.00
2023-06-07T08:21:37.232Z,95042.00
2023-06-07T08:22:37.203Z,95041.00
2023-06-07T08:23:37.236Z,95041.00
2023-06-07T08:24:37.232Z,95038.00
2023-06-07T08:25:37.234Z,95036.00
2023-06-07T08:26:37.227Z,95036.00
2023-06-07T08:27:37.298Z,95035.00
2023-06-07T08:28:37.214Z,95034.00
2023-06-07T08:29:37.236Z,95032.00
2023-06-07T08:30:37.249Z,95031.00
2023-06-07T08:31:37.288Z,95030.00
2023-06-07T08:32:37.284Z,95029.00
2023-06-07T08:33:37.250Z,95029.00
2023-06-07T08:34:37.263Z,95026.00
2023-06-07T08:35:37.242Z,95024.00
2023-06-07T08:36:37.284Z,95022.00
2023-06-07T08:37:37.281Z,95021.00
2023-06-07T08:38:37.340Z,95021.00
2023-06-07T08:39:37.390Z,95019.00
2023-06-07T08:40:37.438Z,95019.00
2023-06-07T08:41:37.816Z,95018.00
2023-06-07T08:42:37.556Z,95018.00
2023-06-07T08:43:37.580Z,95017.00
2023-06-07T08:44:37.676Z,95018.00
2023-06-07T08:45:40.496Z,95017.00
2023-06-07T08:46:37.840Z,95020.00
2023-06-07T08:47:37.825Z,95020.00
2023-06-07T08:48:37.778Z,95019.00
2023-06-07T08:49:37.760Z,95020.00
2023-06-07T08:50:37.805Z,95019.00
2023-06-07T08:51:37.781Z,95017.00
2023-06-07T08:52:37.765Z,95015.00
2023-06-07T08:53:37.827Z,95014.00
2023-06-07T08:54:37.788Z,95013.00
2023-06-07T08:55:37.796Z,95014.00
2023-06-07T08:56:37.824Z,95014.00
2023-06-07T08:57:38.065Z,95011.00
2023-06-07T08:58:37.837Z,95010.00
2023-06-07T08:59:37.799Z,95014.00
2023-06-07T09:00:37.786Z,95011.00
2023-06-07T09:01:37.916Z,95013.00
2023-06-07T09:02:37.899Z,95012.00
2023-06-07T09:03:38.049Z,95012.00
2023-06-07T09:04:37.954Z,95012.00
2023-06-07T09:05:38.022Z,95012.00
2023-06-07T09:06:38.071Z,95012.00
2023-06-07T09:07:38.169Z,95011.00
2023-06-07T09:08:38.182Z,95007.00
2023-06-07T09:09:38.242Z,95008.00
2023-06-07T09:10:38.329Z,95005.00
2023-06-07T09:11:38.404Z,95001.00
2023-06-07T09:12:38.437Z,95001.00
2023-06-07T09:13:38.476Z,95002.00
2023-06-07T09:14:38.524Z,95002.00
2023-06-07T09:15:38.642Z,95001.00
2023-06-07T09:16:38.795Z,94998.00
2023-06-07T09:17:38.802Z,95000.00
2023-06-07T09:18:38.868Z,95000.00
2023-06-07T09:19:38.853Z,94997.00
2023-06-07T09:20:38.933Z,94997.00
2023-06-07T09:21:39.022Z,94997.00
2023-06-07T09:22:39.048Z,94996.00
2023-06-07T09:23:39.174Z,94994.00
2023-06-07T09:24:39.171Z,94990.00
2023-06-07T09:25:39.274Z,94991.00
2023-06-07T09:26:39.756Z,94989.00
2023-06-07T09:27:39.389Z,94989.00
2023-06-07T09:28:39.449Z,94989.00
2023-06-07T09:29:39.548Z,94988.00
2023-06-07T09:30:39.577Z,94988.00
2023-06-07T09:31:39.715Z,94986.00
2023-06-07T09:32:39.758Z,94988.00
2023-06-07T09:33:39.807Z,94983.00
2023-06-07T09:34:39.806Z,94981.00
2023-06-07T09:35:39.902Z,94980.00
2023-06-07T09:36:40.038Z,94979.00
2023-06-07T09:37:40.071Z,94981.00
2023-06-07T09:38:40.099Z,94978.00
2023-06-07T09:39:40.155Z,94976.00
2023-06-07T09:40:40.225Z,94978.00
2023-06-07T09:41:40.292Z,94978.00
2023-06-07T09:42:40.301Z,94975.00
2023-06-07T09:43:40.379Z,94976.00
2023-06-07T09:44:40.451Z,94975.00
2023-06-07T09:45:40.676Z,94973.00
2023-06-07T09:46:40.593Z,94968.00
2023-06-07T09:47:40.768Z,94966.00
2023-06-07T09:48:40.762Z,94967.00
2023-06-07T09:49:40.705Z,94964.00
2023-06-07T09:50:40.780Z,94966.00
2023-06-07T09:51:40.817Z,94964.00
2023-06-07T09:52:40.767Z,94965.00
2023-06-07T09:53:40.848Z,94963.00
2023-06-07T09:54:40.907Z,94961.00
2023-06-07T09:55:40.926Z,94959.00
2023-06-07T09:56:40.916Z,94957.00
2023-06-07T09:57:40.959Z,94955.00
2023-06-07T09:58:41.076Z,94956.00
2023-06-07T09:59:41.055Z,94956.00
2023-06-07T10:00:41.155Z,94955.00
2023-06-07T10:01:41.483Z,94955.00
2023-06-07T10:02:41.266Z,94953.00
2023-06-07T10:03:41.957Z,94951.00
2023-06-07T10:04:41.321Z,94947.00
2023-06-07T10:05:41.351Z,94948.00
2023-06-07T10:06:41.438Z,94949.00
2023-06-07T10:07:41.539Z,94946.00
2023-06-07T10:08:41.472Z,94946.00
2023-06-07T10:09:41.544Z,94943.00
2023-06-07T10:10:41.554Z,94945.00
2023-06-07T10:11:41.608Z,94942.00
2023-06-07T10:12:41.706Z,94943.00
2023-06-07T10:13:41.794Z,94941.00
2023-06-07T10:14:41.793Z,94937.00
2023-06-07T10:15:41.811Z,94937.00
2023-06-07T10:16:41.908Z,94938.00
2023-06-07T10:17:41.920Z,94934.00
2023-06-07T10:18:41.932Z,94931.00
2023-06-07T10:19:42.090Z,94931.00
2023-06-07T10:20:42.039Z,94931.00
2023-06-07T10:21:42.084Z,94930.00
2023-06-07T10:22:42.097Z,94929.00
2023-06-07T10:23:42.241Z,94930.00
2023-06-07T10:24:42.214Z,94929.00
2023-06-07T10:25:42.235Z,94927.00
2023-06-07T10:26:42.329Z,94925.00
2023-06-07T10:27:42.398Z,94926.00
2023-06-07T10:28:42.418Z,94923.00
2023-06-07T10:29:42.500Z,94923.00
2023-06-07T10:30:42.532Z,94920.00
2023-06-07T10:31:42.603Z,94918.00
2023-06-07T10:32:42.752Z,94917.00
2023-06-07T10:33:42.829Z,94918.00
2023-06-07T10:34:42.724Z,94916.00
2023-06-07T10:35:42.826Z,94912.00
2023-06-07T10:36:42.928Z,94911.00
2023-06-07T10:37:42.949Z,94910.00
2023-06-07T10:38:43.005Z,94908.00
2023-06-07T10:39:43.056Z,94907.00
2023-06-07T10:40:43.064Z,94906.00
2023-06-07T10:41:43.116Z,94903.00
2023-06-07T10:42:43.144Z,94900.00
2023-06-07T10:43:43.154Z,94897.00
2023-06-07T10:44:43.266Z,94897.00
2023-06-07T10:45:43.396Z,94898.00
2023-06-07T10:46:43.352Z,94896.00
2023-06-07T10:47:43.414Z,94895.00
2023-06-07T10:48:43.407Z,94894.00
2023-06-07T10:49:43.610Z,94896.00
2023-06-07T10:50:43.473Z,94894.00
2023-06-07T10:51:43.569Z,94895.00
2023-06-07T10:52:43.526Z,94891.00
2023-06-07T10:53:43.583Z,94887.00
2023-06-07T10:54:43.660Z,94888.00
2023-06-07T10:55:43.712Z,94886.00
2023-06-07T10:56:43.769Z,94888.00
2023-06-07T10:57:43.818Z,94885.00
2023-06-07T10:58:43.773Z,94884.00
2023-06-07T10:59:43.805Z,94884.00
2023-06-07T11:00:43.935Z,94884.00
2023-06-07T11:01:43.933Z,94883.00
2023-06-07T11:02:44.056Z,94885.00
2023-06-07T11:03:44.141Z,94882.00
2023-06-07T11:04:44.326Z,94882.00
2023-06-07T11:05:44.204Z,94882.00
2023-06-07T11:06:44.152Z,94877.00
2023-06-07T11:07:44.233Z,94879.00
2023-06-07T11:08:44.254Z,94880.00
2023-06-07T11:09:44.271Z,94880.00
2023-06-07T11:10:44.373Z,94877.00
2023-06-07T11:11:44.381Z,94876.00
2023-06-07T11:12:44.485Z,94876.00
2023-06-07T11:13:44.551Z,94874.00
2023-06-07T11:14:44.571Z,94872.00
2023-06-07T11:15:44.594Z,94870.00
2023-06-07T11:16:44.681Z,94866.00
2023-06-07T11:17:44.708Z,94865.00
2023-06-07T11:18:44.702Z,94866.00
2023-06-07T11:19:44.762Z,94864.00
2023-06-07T11:20:44.958Z,94863.00
2023-06-07T11:21:44.974Z,94862.00
2023-06-07T11:22:44.920Z,94861.00
2023-06-07T11:23:45.062Z,94860.00
2023-06-07T11:24:46.836Z,94859.00
2023-06-07T11:25:45.157Z,94859.00
2023-06-07T11:26:45.130Z,94859.00
2023-06-07T11:27:45.154Z,94858.00
2023-06-07T11:28:45.244Z,94858.00
2023-06-07T11:29:45.358Z,94857.00
2023-06-07T11:30:45.283Z,94858.00
2023-06-07T11:31:45.322Z,94857.00
2023-06-07T11:32:45.415Z,94856.00
2023-06-07T11:33:45.400Z,94857.00
2023-06-07T11:34:45.457Z,94854.00
2023-06-07T11:35:45.439Z,94855.00
2023-06-07T11:36:45.509Z,94855.00
2023-06-07T11:37:45.488Z,94852.00
2023-06-07T11:38:45.535Z,94848.00
2023-06-07T11:39:45.576Z,94848.00
2023-06-07T11:40:45.621Z,94848.00
2023-06-07T11:41:48.180Z,94845.00
2023-06-07T11:42:45.594Z,94842.00
2023-06-07T11:43:45.598Z,94847.00
2023-06-07T11:44:45.619Z,94846.00